createdAt,value
2017-02-18T00:00:32.190Z,101459
2017-02-18T00:01:31.261Z,101460
2017-02-18T00:02:32.277Z,101457
2017-02-18T00:03:31.374Z,101464
2017-02-18T00:04:31.420Z,101465
2017-02-18T00:05:31.671Z,101459
2017-02-18T00:06:31.533Z,101458
2017-02-18T00:07:31.552Z,101459
2017-02-18T00:08:32.573Z,101452
2017-02-18T00:09:31.721Z,101453
2017-02-18T00:10:31.737Z,101444
2017-02-18T00:11:31.946Z,101453
2017-02-18T00:12:31.856Z,101452
2017-02-18T00:13:32.789Z,101444
2017-02-18T00:14:32.897Z,101451
2017-02-18T00:15:32.892Z,101447
2017-02-18T00:16:32.968Z,101447
2017-02-18T00:17:32.344Z,101447
2017-02-18T00:18:33.123Z,101446
2017-02-18T00:19:33.150Z,101443
2017-02-18T00:20:32.206Z,101449
2017-02-18T00:21:33.259Z,101448
2017-02-18T00:22:33.308Z,101444
2017-02-18T00:23:33.564Z,101442
2017-02-18T00:24:32.521Z,101439
2017-02-18T00:25:32.574Z,101447
2017-02-18T00:26:33.619Z,101450
2017-02-18T00:27:32.658Z,101453
2017-02-18T00:28:32.734Z,101451
2017-02-18T00:29:33.082Z,101451
2017-02-18T00:30:32.867Z,101451
2017-02-18T00:31:33.839Z,101444
2017-02-18T00:32:32.940Z,101454
2017-02-18T00:33:33.940Z,101449
2017-02-18T00:34:33.994Z,101456
2017-02-18T00:35:33.211Z,101455
2017-02-18T00:36:33.102Z,101454
2017-02-18T00:37:34.114Z,101455
2017-02-18T00:38:34.153Z,101448
2017-02-18T00:39:34.195Z,101451
2017-02-18T00:40:34.183Z,101453
2017-02-18T00:41:33.425Z,101448
2017-02-18T00:42:34.222Z,101456
2017-02-18T00:43:34.220Z,101459
2017-02-18T00:44:33.299Z,101452
2017-02-18T00:45:33.345Z,101457
2017-02-18T00:46:33.380Z,101461
2017-02-18T00:47:33.603Z,101461
2017-02-18T00:48:34.475Z,101461
2017-02-18T00:49:34.575Z,101461
2017-02-18T00:50:33.632Z,101456
2017-02-18T00:51:33.639Z,101460
2017-02-18T00:52:34.622Z,101451
2017-02-18T00:53:33.911Z,101461
2017-02-18T00:54:33.832Z,101459
2017-02-18T00:55:34.934Z,101458
2017-02-18T00:56:34.977Z,101459
2017-02-18T00:57:34.032Z,101460
2017-02-18T00:58:33.981Z,101465
2017-02-18T00:59:35.207Z,101457
2017-02-18T01:00:34.110Z,101453
2017-02-18T01:01:35.074Z,101456
2017-02-18T01:02:35.076Z,101454
2017-02-18T01:03:34.179Z,101454
2017-02-18T01:04:35.241Z,101451
2017-02-18T01:05:34.574Z,101452
2017-02-18T01:06:35.359Z,101453
2017-02-18T01:07:34.479Z,101455
2017-02-18T01:08:35.563Z,101447
2017-02-18T01:09:35.565Z,101454
2017-02-18T01:10:34.582Z,101451
2017-02-18T01:11:35.817Z,101442
2017-02-18T01:12:34.812Z,101448
2017-02-18T01:13:34.828Z,101449
2017-02-18T01:14:34.945Z,101445
2017-02-18T01:15:34.990Z,101454
2017-02-18T01:16:35.063Z,101453
2017-02-18T01:17:36.088Z,101459
2017-02-18T01:18:36.094Z,101455
2017-02-18T01:19:36.178Z,101456
2017-02-18T01:20:36.219Z,101456
2017-02-18T01:21:35.259Z,101457
2017-02-18T01:22:36.302Z,101458
2017-02-18T01:23:36.298Z,101455
2017-02-18T01:24:35.387Z,101455
2017-02-18T01:25:35.493Z,101452
2017-02-18T01:26:35.553Z,101452
2017-02-18T01:27:36.551Z,101457
2017-02-18T01:28:35.612Z,101455
2017-02-18T01:29:35.676Z,101454
2017-02-18T01:30:36.777Z,101451
2017-02-18T01:31:36.870Z,101456
2017-02-18T01:32:36.915Z,101460
2017-02-18T01:33:35.916Z,101454
2017-02-18T01:34:35.985Z,101463
2017-02-18T01:35:37.053Z,101465
2017-02-18T01:36:37.186Z,101464
2017-02-18T01:37:37.162Z,101461
2017-02-18T01:38:37.260Z,101460
2017-02-18T01:39:37.277Z,101451
2017-02-18T01:40:36.350Z,101458
2017-02-18T01:41:36.418Z,101456
2017-02-18T01:42:36.497Z,101462
2017-02-18T01:43:36.553Z,101463
2017-02-18T01:44:37.570Z,101466
2017-02-18T01:45:36.712Z,101465
2017-02-18T01:46:36.721Z,101468
2017-02-18T01:47:36.741Z,101463
2017-02-18T01:48:36.746Z,101463
2017-02-18T01:49:37.732Z,101454
2017-02-18T01:50:38.056Z,101456
2017-02-18T01:51:37.874Z,101457
2017-02-18T01:52:37.969Z,101459
2017-02-18T01:53:37.093Z,101456
2017-02-18T01:54:38.081Z,101459
2017-02-18T01:55:37.100Z,101451
2017-02-18T01:56:37.363Z,101457
2017-02-18T01:57:38.181Z,101447
2017-02-18T01:58:38.271Z,101452
2017-02-18T01:59:37.303Z,101451
2017-02-18T02:00:38.400Z,101448
2017-02-18T02:01:38.449Z,101443
2017-02-18T02:02:38.680Z,101445
2017-02-18T02:03:37.693Z,101442
2017-02-18T02:04:38.617Z,101448
2017-02-18T02:05:38.654Z,101443
2017-02-18T02:06:37.754Z,101441
2017-02-18T02:07:38.747Z,101433
2017-02-18T02:08:38.970Z,101439
2017-02-18T02:09:37.850Z,101440
2017-02-18T02:10:38.813Z,101436
2017-02-18T02:11:37.919Z,101442
2017-02-18T02:12:37.925Z,101439
2017-02-18T02:13:39.019Z,101437
2017-02-18T02:14:39.323Z,101435
2017-02-18T02:15:39.149Z,101435
2017-02-18T02:16:38.199Z,101433
2017-02-18T02:17:39.217Z,101433
2017-02-18T02:18:39.246Z,101435
2017-02-18T02:19:38.398Z,101428
2017-02-18T02:20:38.667Z,101428
2017-02-18T02:21:39.392Z,101430
2017-02-18T02:22:38.511Z,101428
2017-02-18T02:23:39.521Z,101427
2017-02-18T02:24:39.627Z,101424
2017-02-18T02:25:39.586Z,101426
2017-02-18T02:26:38.839Z,101424
2017-02-18T02:27:38.722Z,101423
2017-02-18T02:28:39.659Z,101421
2017-02-18T02:29:38.764Z,101417
2017-02-18T02:30:38.806Z,101418
2017-02-18T02:31:38.790Z,101411
2017-02-18T02:32:40.096Z,101408
2017-02-18T02:33:39.798Z,101408
2017-02-18T02:34:38.957Z,101406
2017-02-18T02:35:39.922Z,101394
2017-02-18T02:36:39.067Z,101398
2017-02-18T02:37:39.098Z,101403
2017-02-18T02:38:40.332Z,101401
2017-02-18T02:39:40.168Z,101391
2017-02-18T02:40:39.240Z,101397
2017-02-18T02:41:39.352Z,101391
2017-02-18T02:42:40.352Z,101399
2017-02-18T02:43:39.418Z,101396
2017-02-18T02:44:39.680Z,101392
2017-02-18T02:45:40.466Z,101395
2017-02-18T02:46:40.592Z,101394
2017-02-18T02:47:40.594Z,101395
2017-02-18T02:48:40.619Z,101392
2017-02-18T02:49:39.695Z,101399
2017-02-18T02:50:39.904Z,101396
2017-02-18T02:51:39.810Z,101396
2017-02-18T02:52:40.781Z,101399
2017-02-18T02:53:39.878Z,101398
2017-02-18T02:54:39.856Z,101395
2017-02-18T02:55:39.988Z,101385
2017-02-18T02:56:41.131Z,101396
2017-02-18T02:57:41.056Z,101391
2017-02-18T02:58:40.131Z,101391
2017-02-18T02:59:41.222Z,101395
2017-02-18T03:00:41.247Z,101392
2017-02-18T03:01:40.237Z,101388
2017-02-18T03:02:40.539Z,101382
2017-02-18T03:03:41.446Z,101388
2017-02-18T03:04:40.481Z,101394
2017-02-18T03:05:40.546Z,101390
2017-02-18T03:06:40.598Z,101395
2017-02-18T03:07:40.676Z,101395
2017-02-18T03:08:41.945Z,101388
2017-02-18T03:09:40.888Z,101390
2017-02-18T03:10:40.867Z,101393
2017-02-18T03:11:40.992Z,101389
2017-02-18T03:12:41.993Z,101381
2017-02-18T03:13:42.015Z,101392
2017-02-18T03:14:41.275Z,101399
2017-02-18T03:15:41.146Z,101395
2017-02-18T03:16:42.201Z,101399
2017-02-18T03:17:41.299Z,101398
2017-02-18T03:18:42.419Z,101400
2017-02-18T03:19:41.518Z,101395
2017-02-18T03:20:42.667Z,101402
2017-02-18T03:21:41.496Z,101398
2017-02-18T03:22:41.534Z,101398
2017-02-18T03:23:42.581Z,101401
2017-02-18T03:24:42.616Z,101398
2017-02-18T03:25:42.651Z,101399
2017-02-18T03:26:41.949Z,101404
2017-02-18T03:27:42.747Z,101407
2017-02-18T03:28:41.749Z,101409
2017-02-18T03:29:42.765Z,101409
2017-02-18T03:30:42.868Z,101410
2017-02-18T03:31:42.929Z,101407
2017-02-18T03:32:43.059Z,101410
2017-02-18T03:33:42.946Z,101398
2017-02-18T03:34:42.034Z,101407
2017-02-18T03:35:42.034Z,101404
2017-02-18T03:36:43.078Z,101405
2017-02-18T03:37:42.119Z,101405
2017-02-18T03:38:43.500Z,101409
2017-02-18T03:39:42.247Z,101399
2017-02-18T03:40:42.312Z,101408
2017-02-18T03:41:42.425Z,101406
2017-02-18T03:42:42.455Z,101413
2017-02-18T03:43:43.436Z,101412
2017-02-18T03:44:43.716Z,101412
2017-02-18T03:45:43.616Z,101409
2017-02-18T03:46:42.710Z,101409
2017-02-18T03:47:42.742Z,101405
2017-02-18T03:48:43.666Z,101408
2017-02-18T03:49:42.777Z,101408
2017-02-18T03:50:43.997Z,101402
2017-02-18T03:51:42.866Z,101403
2017-02-18T03:52:42.853Z,101406
2017-02-18T03:53:43.868Z,101407
2017-02-18T03:54:42.981Z,101402
2017-02-18T03:55:43.993Z,101403
2017-02-18T03:56:43.228Z,101403
2017-02-18T03:57:44.011Z,101405
2017-02-18T03:58:44.037Z,101399
2017-02-18T03:59:43.101Z,101409
2017-02-18T04:00:44.131Z,101403
2017-02-18T04:01:43.157Z,101408
2017-02-18T04:02:44.390Z,101406
2017-02-18T04:03:44.286Z,101409
2017-02-18T04:04:43.390Z,101408
2017-02-18T04:05:44.334Z,101403
2017-02-18T04:06:43.410Z,101411
2017-02-18T04:07:44.462Z,101410
2017-02-18T04:08:43.754Z,101410
2017-02-18T04:09:43.555Z,101411
2017-02-18T04:10:43.656Z,101406
2017-02-18T04:11:43.669Z,101409
2017-02-18T04:12:43.723Z,101405
2017-02-18T04:13:43.779Z,101409
2017-02-18T04:14:45.102Z,101406
2017-02-18T04:15:44.924Z,101411
2017-02-18T04:16:45.003Z,101407
2017-02-18T04:17:44.047Z,101418
2017-02-18T04:18:45.059Z,101410
2017-02-18T04:19:44.108Z,101418
2017-02-18T04:20:44.363Z,101419
2017-02-18T04:21:45.207Z,101415
2017-02-18T04:22:44.284Z,101416
2017-02-18T04:23:45.270Z,101421
2017-02-18T04:24:44.296Z,101420
2017-02-18T04:25:44.365Z,101421
2017-02-18T04:26:44.583Z,101424
2017-02-18T04:27:44.433Z,101421
2017-02-18T04:28:45.537Z,101424
2017-02-18T04:29:44.540Z,101417
2017-02-18T04:30:45.648Z,101425
2017-02-18T04:31:44.655Z,101426
2017-02-18T04:32:45.851Z,101427
2017-02-18T04:33:45.673Z,101426
2017-02-18T04:34:45.713Z,101429
2017-02-18T04:35:44.856Z,101431
2017-02-18T04:36:44.940Z,101431
2017-02-18T04:37:45.856Z,101434
2017-02-18T04:38:45.127Z,101429
2017-02-18T04:39:45.002Z,101430
2017-02-18T04:40:45.085Z,101426
2017-02-18T04:41:46.021Z,101427
2017-02-18T04:42:45.139Z,101425
2017-02-18T04:43:45.183Z,101420
2017-02-18T04:44:46.530Z,101427
2017-02-18T04:45:45.351Z,101429
2017-02-18T04:46:45.356Z,101423
2017-02-18T04:47:46.361Z,101430
2017-02-18T04:48:47.211Z,101421
2017-02-18T04:49:45.539Z,101427
2017-02-18T04:50:45.755Z,101427
2017-02-18T04:51:46.524Z,101430
2017-02-18T04:52:46.546Z,101434
2017-02-18T04:53:45.686Z,101432
2017-02-18T04:54:46.691Z,101433
2017-02-18T04:55:46.809Z,101435
2017-02-18T04:56:46.202Z,101439
2017-02-18T04:57:46.890Z,101438
2017-02-18T04:58:45.969Z,101434
2017-02-18T04:59:46.021Z,101437
2017-02-18T05:00:46.042Z,101441
2017-02-18T05:01:47.025Z,101437
2017-02-18T05:02:47.277Z,101432
2017-02-18T05:03:47.135Z,101429
2017-02-18T05:04:46.267Z,101430
2017-02-18T05:05:46.261Z,101428
2017-02-18T05:06:47.312Z,101426
2017-02-18T05:07:46.389Z,101426
2017-02-18T05:08:47.548Z,101415
2017-02-18T05:09:47.347Z,101427
2017-02-18T05:10:47.460Z,101427
2017-02-18T05:11:47.473Z,101421
2017-02-18T05:12:47.487Z,101425
2017-02-18T05:13:46.607Z,101419
2017-02-18T05:14:46.805Z,101422
2017-02-18T05:15:46.606Z,101419
2017-02-18T05:16:47.652Z,101425
2017-02-18T05:17:47.742Z,101418
2017-02-18T05:18:47.754Z,101416
2017-02-18T05:19:47.750Z,101415
2017-02-18T05:20:48.101Z,101414
2017-02-18T05:21:46.917Z,101413
2017-02-18T05:22:47.947Z,101416
2017-02-18T05:23:47.960Z,101421
2017-02-18T05:24:47.033Z,101417
2017-02-18T05:25:48.119Z,101420
2017-02-18T05:26:48.539Z,101424
2017-02-18T05:27:47.297Z,101423
2017-02-18T05:28:47.319Z,101427
2017-02-18T05:29:47.361Z,101424
2017-02-18T05:30:47.368Z,101420
2017-02-18T05:31:47.453Z,101421
2017-02-18T05:32:48.764Z,101423
2017-02-18T05:33:48.434Z,101425
2017-02-18T05:34:48.480Z,101431
2017-02-18T05:35:48.538Z,101429
2017-02-18T05:36:48.634Z,101425
2017-02-18T05:37:48.678Z,101430
2017-02-18T05:38:48.064Z,101431
2017-02-18T05:39:47.852Z,101432
2017-02-18T05:40:48.815Z,101426
2017-02-18T05:41:48.874Z,101430
2017-02-18T05:42:48.905Z,101430
2017-02-18T05:43:47.938Z,101430
2017-02-18T05:44:49.155Z,101429
2017-02-18T05:45:48.112Z,101426
2017-02-18T05:46:48.066Z,101429
2017-02-18T05:47:49.156Z,101430
2017-02-18T05:48:49.217Z,101432
2017-02-18T05:49:49.298Z,101430
2017-02-18T05:50:48.496Z,101437
2017-02-18T05:51:49.424Z,101436
2017-02-18T05:52:49.525Z,101427
2017-02-18T05:53:48.649Z,101433
2017-02-18T05:54:48.642Z,101433
2017-02-18T05:55:48.753Z,101432
2017-02-18T05:56:50.092Z,101432
2017-02-18T05:57:48.816Z,101434
2017-02-18T05:58:49.868Z,101429
2017-02-18T05:59:49.018Z,101431
2017-02-18T06:00:50.007Z,101436
2017-02-18T06:01:50.088Z,101425
2017-02-18T06:02:50.381Z,101438
2017-02-18T06:03:49.289Z,101436
2017-02-18T06:04:50.309Z,101439
2017-02-18T06:05:49.370Z,101438
2017-02-18T06:06:50.377Z,101436
2017-02-18T06:07:49.423Z,101434
2017-02-18T06:08:50.694Z,101437
2017-02-18T06:09:49.447Z,101436
2017-02-18T06:10:49.532Z,101439
2017-02-18T06:11:50.470Z,101438
2017-02-18T06:12:49.588Z,101441
2017-02-18T06:13:50.575Z,101441
2017-02-18T06:14:49.949Z,101443
2017-02-18T06:15:50.600Z,101444
2017-02-18T06:16:49.713Z,101439
2017-02-18T06:17:50.766Z,101449
2017-02-18T06:18:50.863Z,101448
2017-02-18T06:19:50.894Z,101453
2017-02-18T06:20:50.005Z,101450
2017-02-18T06:21:50.016Z,101447
2017-02-18T06:22:50.151Z,101452
2017-02-18T06:23:50.140Z,101451
2017-02-18T06:24:50.203Z,101451
2017-02-18T06:25:50.305Z,101455
2017-02-18T06:26:51.337Z,101455
2017-02-18T06:27:51.369Z,101456
2017-02-18T06:28:50.500Z,101454
2017-02-18T06:29:51.509Z,101450
2017-02-18T06:30:50.682Z,101455
2017-02-18T06:31:50.707Z,101458
2017-02-18T06:32:51.796Z,101456
2017-02-18T06:33:51.767Z,101459
2017-02-18T06:34:51.870Z,101457
2017-02-18T06:35:50.954Z,101461
2017-02-18T06:36:50.942Z,101461
2017-02-18T06:37:50.968Z,101454
2017-02-18T06:38:51.978Z,101462
2017-02-18T06:39:52.008Z,101459
2017-02-18T06:40:52.000Z,101462
2017-02-18T06:41:52.044Z,101453
2017-02-18T06:42:52.145Z,101458
2017-02-18T06:43:52.241Z,101458
2017-02-18T06:44:52.248Z,101456
2017-02-18T06:45:52.342Z,101457
2017-02-18T06:46:51.328Z,101452
2017-02-18T06:47:52.413Z,101457
2017-02-18T06:48:52.499Z,101460
2017-02-18T06:49:52.579Z,101458
2017-02-18T06:50:51.618Z,101461
2017-02-18T06:51:52.654Z,101452
2017-02-18T06:52:51.736Z,101462
2017-02-18T06:53:52.778Z,101463
2017-02-18T06:54:51.814Z,101462
2017-02-18T06:55:51.943Z,101457
2017-02-18T06:56:51.927Z,101457
2017-02-18T06:57:52.991Z,101453
2017-02-18T06:58:53.044Z,101457
2017-02-18T06:59:52.145Z,101461
2017-02-18T07:00:52.252Z,101455
2017-02-18T07:01:53.267Z,101457
2017-02-18T07:02:52.320Z,101457
2017-02-18T07:03:53.362Z,101457
2017-02-18T07:04:52.363Z,101449
2017-02-18T07:05:53.394Z,101455
2017-02-18T07:06:52.451Z,101455
2017-02-18T07:07:52.536Z,101453
2017-02-18T07:08:52.554Z,101454
2017-02-18T07:09:52.570Z,101454
2017-02-18T07:10:52.593Z,101448
2017-02-18T07:11:53.661Z,101456
2017-02-18T07:12:53.694Z,101464
2017-02-18T07:13:53.799Z,101465
2017-02-18T07:14:53.830Z,101460
2017-02-18T07:15:53.834Z,101463
2017-02-18T07:16:53.875Z,101467
2017-02-18T07:17:52.907Z,101465
2017-02-18T07:18:53.919Z,101467
2017-02-18T07:19:52.992Z,101466
2017-02-18T07:20:54.013Z,101472
2017-02-18T07:21:53.997Z,101473
2017-02-18T07:22:53.126Z,101468
2017-02-18T07:23:53.198Z,101467
2017-02-18T07:24:54.205Z,101468
2017-02-18T07:25:53.315Z,101460
2017-02-18T07:26:53.320Z,101468
2017-02-18T07:27:53.370Z,101470
2017-02-18T07:28:53.358Z,101465
2017-02-18T07:29:53.420Z,101470
2017-02-18T07:30:53.386Z,101472
2017-02-18T07:31:53.480Z,101468
2017-02-18T07:32:53.603Z,101470
2017-02-18T07:33:54.653Z,101472
2017-02-18T07:34:54.672Z,101468
2017-02-18T07:35:54.668Z,101471
2017-02-18T07:36:54.733Z,101471
2017-02-18T07:37:54.762Z,101471
2017-02-18T07:38:53.819Z,101470
2017-02-18T07:39:54.811Z,101475
2017-02-18T07:40:53.883Z,101477
2017-02-18T07:41:53.994Z,101479
2017-02-18T07:42:55.045Z,101470
2017-02-18T07:43:55.023Z,101478
2017-02-18T07:44:54.112Z,101477
2017-02-18T07:45:54.179Z,101469
2017-02-18T07:46:55.211Z,101475
2017-02-18T07:47:54.298Z,101481
2017-02-18T07:48:55.352Z,101472
2017-02-18T07:49:54.441Z,101477
2017-02-18T07:50:55.392Z,101475
2017-02-18T07:51:54.454Z,101474
2017-02-18T07:52:55.445Z,101474
2017-02-18T07:53:55.523Z,101477
2017-02-18T07:54:54.602Z,101478
2017-02-18T07:55:55.592Z,101480
2017-02-18T07:56:54.680Z,101483
2017-02-18T07:57:54.756Z,101474
2017-02-18T07:58:54.903Z,101474
2017-02-18T07:59:55.887Z,101475
2017-02-18T08:00:56.013Z,101474
2017-02-18T08:01:56.044Z,101478
2017-02-18T08:02:55.158Z,101480
2017-02-18T08:03:56.152Z,101470
2017-02-18T08:04:55.212Z,101480
2017-02-18T08:05:55.337Z,101480
2017-02-18T08:06:55.371Z,101472
2017-02-18T08:07:56.312Z,101475
2017-02-18T08:08:56.358Z,101476
2017-02-18T08:09:56.307Z,101473
2017-02-18T08:10:55.450Z,101482
2017-02-18T08:11:56.440Z,101479
2017-02-18T08:12:55.603Z,101474
2017-02-18T08:13:55.664Z,101480
2017-02-18T08:14:55.736Z,101479
2017-02-18T08:15:56.738Z,101471
2017-02-18T08:16:55.782Z,101480
2017-02-18T08:17:55.934Z,101479
2017-02-18T08:18:55.951Z,101474
2017-02-18T08:19:56.986Z,101474
2017-02-18T08:20:56.068Z,101476
2017-02-18T08:21:56.194Z,101472
2017-02-18T08:22:57.192Z,101478
2017-02-18T08:23:56.286Z,101479
2017-02-18T08:24:56.361Z,101470
2017-02-18T08:25:56.346Z,101479
2017-02-18T08:26:57.417Z,101479
2017-02-18T08:27:57.546Z,101482
2017-02-18T08:28:56.583Z,101483
2017-02-18T08:29:57.667Z,101481
2017-02-18T08:30:57.736Z,101479
2017-02-18T08:31:56.809Z,101475
2017-02-18T08:32:57.779Z,101469
2017-02-18T08:33:56.908Z,101477
2017-02-18T08:34:56.950Z,101480
2017-02-18T08:35:57.060Z,101483
2017-02-18T08:36:58.106Z,101484
2017-02-18T08:37:58.115Z,101487
2017-02-18T08:38:58.135Z,101477
2017-02-18T08:39:57.291Z,101487
2017-02-18T08:40:57.246Z,101486
2017-02-18T08:41:57.329Z,101483
2017-02-18T08:42:57.280Z,101479
2017-02-18T08:43:57.328Z,101473
2017-02-18T08:44:57.377Z,101479
2017-02-18T08:45:57.404Z,101470
2017-02-18T08:46:57.487Z,101475
2017-02-18T08:47:58.555Z,101473
2017-02-18T08:48:58.608Z,101482
2017-02-18T08:49:57.764Z,101479
2017-02-18T08:50:58.688Z,101483
2017-02-18T08:51:58.740Z,101483
2017-02-18T08:52:57.864Z,101482
2017-02-18T08:53:58.867Z,101479
2017-02-18T08:54:57.898Z,101478
2017-02-18T08:55:58.008Z,101479
2017-02-18T08:56:58.993Z,101478
2017-02-18T08:57:59.109Z,101478
2017-02-18T08:58:58.201Z,101481
2017-02-18T08:59:58.266Z,101478
2017-02-18T09:00:58.283Z,101479
2017-02-18T09:01:59.299Z,101472
2017-02-18T09:02:59.338Z,101483
2017-02-18T09:03:59.365Z,101484
2017-02-18T09:04:59.413Z,101483
2017-02-18T09:05:59.424Z,101484
2017-02-18T09:06:59.523Z,101481
2017-02-18T09:07:58.535Z,101482
2017-02-18T09:08:59.501Z,101480
2017-02-18T09:09:59.625Z,101486
2017-02-18T09:10:59.614Z,101487
2017-02-18T09:11:58.647Z,101487
2017-02-18T09:12:58.787Z,101484
2017-02-18T09:13:59.792Z,101491
2017-02-18T09:14:59.863Z,101489
2017-02-18T09:15:59.876Z,101489
2017-02-18T09:16:59.926Z,101488
2017-02-18T09:17:59.937Z,101491
2017-02-18T09:18:59.962Z,101486
2017-02-18T09:20:00.047Z,101480
2017-02-18T09:21:00.052Z,101483
2017-02-18T09:21:59.146Z,101485
2017-02-18T09:23:00.142Z,101479
2017-02-18T09:23:59.246Z,101487
2017-02-18T09:24:59.294Z,101490
2017-02-18T09:25:59.341Z,101485
2017-02-18T09:27:00.363Z,101496
2017-02-18T09:28:00.337Z,101491
2017-02-18T09:28:59.458Z,101489
2017-02-18T09:29:59.552Z,101482
2017-02-18T09:30:59.620Z,101491
2017-02-18T09:31:59.705Z,101493
2017-02-18T09:33:00.732Z,101491
2017-02-18T09:34:00.754Z,101487
2017-02-18T09:35:00.777Z,101490
2017-02-18T09:35:59.839Z,101487
2017-02-18T09:37:00.853Z,101482
2017-02-18T09:38:00.927Z,101489
2017-02-18T09:39:01.030Z,101492
2017-02-18T09:40:00.051Z,101489
2017-02-18T09:41:01.132Z,101482
2017-02-18T09:42:01.146Z,101486
2017-02-18T09:43:00.221Z,101483
2017-02-18T09:44:00.265Z,101482
2017-02-18T09:45:00.378Z,101475
2017-02-18T09:46:01.374Z,101481
2017-02-18T09:47:00.521Z,101483
2017-02-18T09:48:00.527Z,101477
2017-02-18T09:49:00.544Z,101483
2017-02-18T09:50:00.573Z,101483
2017-02-18T09:51:00.631Z,101483
2017-02-18T09:52:01.600Z,101474
2017-02-18T09:53:00.709Z,101481
2017-02-18T09:54:00.753Z,101484
2017-02-18T09:55:00.827Z,101479
2017-02-18T09:56:02.066Z,101481
2017-02-18T09:57:00.996Z,101483
2017-02-18T09:58:01.989Z,101482
2017-02-18T09:59:00.986Z,101482
2017-02-18T10:00:01.040Z,101489
2017-02-18T10:01:02.044Z,101487
2017-02-18T10:02:01.363Z,101484
2017-02-18T10:03:01.107Z,101486
2017-02-18T10:04:01.192Z,101479
2017-02-18T10:05:02.193Z,101480
2017-02-18T10:06:02.190Z,101480
2017-02-18T10:07:01.259Z,101478
2017-02-18T10:08:02.442Z,101475
2017-02-18T10:09:01.326Z,101473
2017-02-18T10:10:02.277Z,101478
2017-02-18T10:11:02.359Z,101475
2017-02-18T10:12:02.419Z,101480
2017-02-18T10:13:02.546Z,101478
2017-02-18T10:14:02.720Z,101478
2017-02-18T10:15:01.619Z,101480
2017-02-18T10:16:02.675Z,101478
2017-02-18T10:17:01.808Z,101483
2017-02-18T10:18:01.838Z,101479
2017-02-18T10:19:02.062Z,101478
2017-02-18T10:20:01.990Z,101473
2017-02-18T10:21:03.059Z,101476
2017-02-18T10:22:02.111Z,101478
2017-02-18T10:23:03.151Z,101471
2017-02-18T10:24:02.240Z,101470
2017-02-18T10:25:02.568Z,101475
2017-02-18T10:26:03.303Z,101477
2017-02-18T10:27:03.315Z,101473
2017-02-18T10:28:02.383Z,101473
2017-02-18T10:29:02.379Z,101478
2017-02-18T10:30:03.449Z,101479
2017-02-18T10:31:02.599Z,101479
2017-02-18T10:32:02.439Z,101475
2017-02-18T10:33:02.542Z,101474
2017-02-18T10:34:03.525Z,101478
2017-02-18T10:35:02.576Z,101478
2017-02-18T10:36:03.535Z,101483
2017-02-18T10:37:02.783Z,101476
2017-02-18T10:38:02.688Z,101477
2017-02-18T10:39:02.758Z,101478
2017-02-18T10:40:03.700Z,101477
2017-02-18T10:41:02.835Z,101486
2017-02-18T10:42:02.842Z,101487
2017-02-18T10:43:03.172Z,101492
2017-02-18T10:44:03.935Z,101491
2017-02-18T10:45:03.051Z,101486
2017-02-18T10:46:03.146Z,101489
2017-02-18T10:47:04.211Z,101486
2017-02-18T10:48:04.298Z,101489
2017-02-18T10:49:03.582Z,101488
2017-02-18T10:50:04.252Z,101483
2017-02-18T10:51:03.582Z,101483
2017-02-18T10:52:04.532Z,101485
2017-02-18T10:53:03.616Z,101485
2017-02-18T10:54:05.139Z,101488
2017-02-18T10:55:04.904Z,101491
2017-02-18T10:56:04.671Z,101494
2017-02-18T10:57:03.775Z,101493
2017-02-18T10:58:03.817Z,101497
2017-02-18T10:59:04.786Z,101497
2017-02-18T11:00:03.872Z,101496
2017-02-18T11:01:05.070Z,101495
2017-02-18T11:02:03.921Z,101497
2017-02-18T11:03:04.102Z,101493
2017-02-18T11:04:05.072Z,101495
2017-02-18T11:05:05.858Z,101494
2017-02-18T11:06:05.172Z,101497
2017-02-18T11:07:05.025Z,101495
2017-02-18T11:08:04.250Z,101495
2017-02-18T11:12:39.969Z,101493
2017-02-18T11:13:40.142Z,101487
2017-02-18T11:14:40.230Z,101487
2017-02-18T11:15:40.226Z,101497
2017-02-18T11:16:39.309Z,101495
2017-02-18T11:17:40.355Z,101497
2017-02-18T11:18:39.675Z,101495
2017-02-18T11:19:40.518Z,101495
2017-02-18T11:20:39.605Z,101492
2017-02-18T11:21:39.670Z,101490
2017-02-18T11:22:40.763Z,101493
2017-02-18T11:23:41.339Z,101489
2017-02-18T11:24:40.028Z,101492
2017-02-18T11:25:40.864Z,101487
2017-02-18T11:26:39.980Z,101483
2017-02-18T11:27:40.965Z,101489
2017-02-18T11:28:40.928Z,101487
2017-02-18T11:29:39.999Z,101483
2017-02-18T11:30:40.254Z,101480
2017-02-18T11:31:40.111Z,101486
2017-02-18T11:32:40.217Z,101482
2017-02-18T11:33:40.287Z,101480
2017-02-18T11:34:41.383Z,101482
2017-02-18T11:35:40.408Z,101481
2017-02-18T11:36:41.777Z,101482
2017-02-18T11:37:41.516Z,101480
2017-02-18T11:38:41.571Z,101478
2017-02-18T11:39:41.641Z,101475
2017-02-18T11:40:41.694Z,101481
2017-02-18T11:41:40.746Z,101479
2017-02-18T11:42:41.002Z,101479
2017-02-18T11:43:40.950Z,101478
2017-02-18T11:44:41.916Z,101472
2017-02-18T11:45:42.806Z,101470
2017-02-18T11:46:41.085Z,101473
2017-02-18T11:47:42.090Z,101464
2017-02-18T11:48:41.467Z,101463
2017-02-18T11:49:41.149Z,101473
2017-02-18T11:50:41.235Z,101462
2017-02-18T11:51:41.359Z,101461
2017-02-18T11:52:42.379Z,101463
2017-02-18T11:53:42.519Z,101470
2017-02-18T11:54:42.794Z,101464
2017-02-18T11:55:42.640Z,101462
2017-02-18T11:56:41.735Z,101463
2017-02-18T11:57:42.725Z,101459
2017-02-18T11:58:41.789Z,101465
2017-02-18T11:59:41.812Z,101459
2017-02-18T12:00:43.075Z,101459
2017-02-18T12:01:42.996Z,101455
2017-02-18T12:02:43.033Z,101457
2017-02-18T12:03:42.042Z,101453
2017-02-18T12:04:43.054Z,101450
2017-02-18T12:05:42.177Z,101456
2017-02-18T12:06:43.508Z,101454
2017-02-18T12:07:43.332Z,101455
2017-02-18T12:08:43.406Z,101454
2017-02-18T12:09:42.536Z,101452
2017-02-18T12:10:43.581Z,101453
2017-02-18T12:11:43.619Z,101453
2017-02-18T12:12:42.926Z,101446
2017-02-18T12:13:43.745Z,101454
2017-02-18T12:14:43.798Z,101440
2017-02-18T12:15:42.834Z,101441
2017-02-18T12:16:43.762Z,101444
2017-02-18T12:17:42.894Z,101444
2017-02-18T12:18:43.123Z,101443
2017-02-18T12:19:43.989Z,101448
2017-02-18T12:20:43.020Z,101437
2017-02-18T12:21:43.078Z,101433
2017-02-18T12:22:43.177Z,101442
2017-02-18T12:23:44.212Z,101440
2017-02-18T12:24:43.490Z,101442
2017-02-18T12:25:44.277Z,101436
2017-02-18T12:26:44.330Z,101436
2017-02-18T12:27:44.356Z,101441
2017-02-18T12:28:44.390Z,101436
2017-02-18T12:29:44.456Z,101439
2017-02-18T12:30:44.628Z,101433
2017-02-18T12:31:43.553Z,101434
2017-02-18T12:32:44.623Z,101429